sensor_id;sensor_type;location;lat;lon;timestamp;temperature;humidity
5870;DHT22;2961;47.702;9.410;2023-04-03T00:00:39;4.80;99.90
5870;DHT22;2961;47.702;9.410;2023-04-03T00:03:06;4.80;99.90
5870;DHT22;2961;47.702;9.410;2023-04-03T00:05:33;4.80;99.90
5870;DHT22;2961;47.702;9.410;2023-04-03T00:07:59;4.80;99.90
5870;DHT22;2961;47.702;9.410;2023-04-03T00:10:28;4.80;99.90
5870;DHT22;2961;47.702;9.410;2023-04-03T00:12:55;4.80;99.90
5870;DHT22;2961;47.702;9.410;2023-04-03T00:15:22;4.80;99.90
5870;DHT22;2961;47.702;9.410;2023-04-03T00:17:49;4.80;99.90
5870;DHT22;2961;47.702;9.410;2023-04-03T00:20:16;4.80;99.90
5870;DHT22;2961;47.702;9.410;2023-04-03T00:22:43;4.80;99.90
5870;DHT22;2961;47.702;9.410;2023-04-03T00:25:10;4.80;99.90
5870;DHT22;2961;47.702;9.410;2023-04-03T00:27:38;4.80;99.90
5870;DHT22;2961;47.702;9.410;2023-04-03T00:30:07;4.70;99.90
5870;DHT22;2961;47.702;9.410;2023-04-03T00:32:35;4.60;99.90
5870;DHT22;2961;47.702;9.410;2023-04-03T00:35:01;4.60;99.90
5870;DHT22;2961;47.702;9.410;2023-04-03T00:37:28;4.60;99.90
5870;DHT22;2961;47.702;9.410;2023-04-03T00:39:56;4.50;99.90
5870;DHT22;2961;47.702;9.410;2023-04-03T00:42:23;4.50;99.90
5870;DHT22;2961;47.702;9.410;2023-04-03T00:45:27;4.40;99.90
5870;DHT22;2961;47.702;9.410;2023-04-03T00:47:54;4.30;99.90
5870;DHT22;2961;47.702;9.410;2023-04-03T00:50:22;4.30;99.90
5870;DHT22;2961;47.702;9.410;2023-04-03T00:52:49;4.30;99.90
5870;DHT22;2961;47.702;9.410;2023-04-03T00:55:17;4.30;99.90
5870;DHT22;2961;47.702;9.410;2023-04-03T00:57:45;4.20;99.90
5870;DHT22;2961;47.702;9.410;2023-04-03T01:00:16;4.20;99.90
5870;DHT22;2961;47.702;9.410;2023-04-03T01:02:45;4.20;99.90
5870;DHT22;2961;47.702;9.410;2023-04-03T01:05:13;4.20;99.90
5870;DHT22;2961;47.702;9.410;2023-04-03T01:07:41;4.10;99.90
5870;DHT22;2961;47.702;9.410;2023-04-03T01:10:10;4.10;99.90
5870;DHT22;2961;47.702;9.410;2023-04-03T01:12:42;4.00;99.90
5870;DHT22;2961;47.702;9.410;2023-04-03T01:15:12;4.00;99.90
5870;DHT22;2961;47.702;9.410;2023-04-03T01:17:41;4.00;99.90
5870;DHT22;2961;47.702;9.410;2023-04-03T01:23:25;3.80;99.90
5870;DHT22;2961;47.702;9.410;2023-04-03T01:25:55;3.80;99.90
5870;DHT22;2961;47.702;9.410;2023-04-03T01:28:24;3.70;99.90
5870;DHT22;2961;47.702;9.410;2023-04-03T01:30:56;3.60;99.90
5870;DHT22;2961;47.702;9.410;2023-04-03T01:33:26;3.60;99.90
5870;DHT22;2961;47.702;9.410;2023-04-03T01:35:53;3.50;99.90
5870;DHT22;2961;47.702;9.410;2023-04-03T01:38:20;3.50;99.90
5870;DHT22;2961;47.702;9.410;2023-04-03T01:40:47;3.40;99.90
5870;DHT22;2961;47.702;9.410;2023-04-03T01:43:14;3.40;99.90
5870;DHT22;2961;47.702;9.410;2023-04-03T01:45:41;3.40;99.90
5870;DHT22;2961;47.702;9.410;2023-04-03T01:48:08;3.30;99.90
5870;DHT22;2961;47.702;9.410;2023-04-03T01:50:36;3.30;99.90
5870;DHT22;2961;47.702;9.410;2023-04-03T01:53:03;3.30;99.90
5870;DHT22;2961;47.702;9.410;2023-04-03T01:55:29;3.30;99.90
5870;DHT22;2961;47.702;9.410;2023-04-03T01:57:56;3.30;99.90
5870;DHT22;2961;47.702;9.410;2023-04-03T02:00:23;3.20;99.90
5870;DHT22;2961;47.702;9.410;2023-04-03T02:02:50;3.20;99.90
5870;DHT22;2961;47.702;9.410;2023-04-03T02:05:17;3.20;99.90
5870;DHT22;2961;47.702;9.410;2023-04-03T02:07:45;3.20;99.90
5870;DHT22;2961;47.702;9.410;2023-04-03T02:10:13;3.20;99.90
5870;DHT22;2961;47.702;9.410;2023-04-03T02:12:40;3.10;99.90
5870;DHT22;2961;47.702;9.410;2023-04-03T02:15:07;3.20;99.90
5870;DHT22;2961;47.702;9.410;2023-04-03T02:17:35;3.20;99.90
5870;DHT22;2961;47.702;9.410;2023-04-03T02:20:02;3.10;99.90
5870;DHT22;2961;47.702;9.410;2023-04-03T02:22:29;3.10;99.90
5870;DHT22;2961;47.702;9.410;2023-04-03T02:24:57;3.10;99.90
5870;DHT22;2961;47.702;9.410;2023-04-03T02:27:24;3.10;99.90
5870;DHT22;2961;47.702;9.410;2023-04-03T02:29:51;3.00;99.90
5870;DHT22;2961;47.702;9.410;2023-04-03T02:32:18;3.00;99.90
5870;DHT22;2961;47.702;9.410;2023-04-03T02:34:45;3.00;99.90
5870;DHT22;2961;47.702;9.410;2023-04-03T02:37:12;3.00;99.90
5870;DHT22;2961;47.702;9.410;2023-04-03T02:39:39;3.00;99.90
5870;DHT22;2961;47.702;9.410;2023-04-03T02:42:07;3.00;99.90
5870;DHT22;2961;47.702;9.410;2023-04-03T02:44:34;3.00;99.90
5870;DHT22;2961;47.702;9.410;2023-04-03T02:47:01;3.00;99.90
5870;DHT22;2961;47.702;9.410;2023-04-03T02:49:28;3.00;99.90
5870;DHT22;2961;47.702;9.410;2023-04-03T02:51:55;3.00;99.90
5870;DHT22;2961;47.702;9.410;2023-04-03T02:54:21;2.90;99.90
5870;DHT22;2961;47.702;9.410;2023-04-03T02:56:49;3.00;99.90
5870;DHT22;2961;47.702;9.410;2023-04-03T02:59:18;2.90;99.90
5870;DHT22;2961;47.702;9.410;2023-04-03T03:01:45;2.90;99.90
5870;DHT22;2961;47.702;9.410;2023-04-03T03:04:12;2.90;99.90
5870;DHT22;2961;47.702;9.410;2023-04-03T03:06:39;2.90;99.90
5870;DHT22;2961;47.702;9.410;2023-04-03T03:09:06;2.90;99.90
5870;DHT22;2961;47.702;9.410;2023-04-03T03:11:32;2.90;99.90
5870;DHT22;2961;47.702;9.410;2023-04-03T03:14:00;2.80;99.90
5870;DHT22;2961;47.702;9.410;2023-04-03T03:16:28;2.80;99.90
5870;DHT22;2961;47.702;9.410;2023-04-03T03:18:55;2.80;99.90
5870;DHT22;2961;47.702;9.410;2023-04-03T03:21:22;2.70;99.90
5870;DHT22;2961;47.702;9.410;2023-04-03T03:23:49;2.70;99.90
5870;DHT22;2961;47.702;9.410;2023-04-03T03:26:16;2.60;99.90
5870;DHT22;2961;47.702;9.410;2023-04-03T03:28:42;2.50;99.90
5870;DHT22;2961;47.702;9.410;2023-04-03T03:31:10;2.50;99.90
5870;DHT22;2961;47.702;9.410;2023-04-03T03:33:39;2.40;99.90
5870;DHT22;2961;47.702;9.410;2023-04-03T03:36:06;2.40;99.90
5870;DHT22;2961;47.702;9.410;2023-04-03T03:38:33;2.40;99.90
5870;DHT22;2961;47.702;9.410;2023-04-03T03:40:59;2.50;99.90
5870;DHT22;2961;47.702;9.410;2023-04-03T03:43:27;2.50;99.90
5870;DHT22;2961;47.702;9.410;2023-04-03T03:45:54;2.40;99.90
5870;DHT22;2961;47.702;9.410;2023-04-03T03:48:21;2.30;99.90
5870;DHT22;2961;47.702;9.410;2023-04-03T03:50:50;2.40;99.90
5870;DHT22;2961;47.702;9.410;2023-04-03T03:53:17;2.30;99.90
5870;DHT22;2961;47.702;9.410;2023-04-03T03:55:44;2.40;99.90
5870;DHT22;2961;47.702;9.410;2023-04-03T03:58:11;2.40;99.90
5870;DHT22;2961;47.702;9.410;2023-04-03T04:00:38;2.40;99.90
5870;DHT22;2961;47.702;9.410;2023-04-03T04:03:05;2.40;99.90
5870;DHT22;2961;47.702;9.410;2023-04-03T04:05:31;2.40;99.90
5870;DHT22;2961;47.702;9.410;2023-04-03T04:08:00;2.30;99.90
5870;DHT22;2961;47.702;9.410;2023-04-03T04:10:26;2.30;99.90
5870;DHT22;2961;47.702;9.410;2023-04-03T04:12:53;2.40;99.90
5870;DHT22;2961;47.702;9.410;2023-04-03T04:15:20;2.50;99.90
5870;DHT22;2961;47.702;9.410;2023-04-03T04:17:48;2.50;99.90
5870;DHT22;2961;47.702;9.410;2023-04-03T04:20:15;2.50;99.90
5870;DHT22;2961;47.702;9.410;2023-04-03T04:22:42;2.50;99.90
5870;DHT22;2961;47.702;9.410;2023-04-03T04:25:10;2.40;99.90
5870;DHT22;2961;47.702;9.410;2023-04-03T04:27:37;2.40;99.90
5870;DHT22;2961;47.702;9.410;2023-04-03T04:30:05;2.50;99.90
5870;DHT22;2961;47.702;9.410;2023-04-03T04:32:32;2.50;99.90
5870;DHT22;2961;47.702;9.410;2023-04-03T04:34:59;2.50;99.90
5870;DHT22;2961;47.702;9.410;2023-04-03T04:37:26;2.60;99.90
5870;DHT22;2961;47.702;9.410;2023-04-03T04:39:53;2.60;99.90
5870;DHT22;2961;47.702;9.410;2023-04-03T04:42:21;2.60;99.90
5870;DHT22;2961;47.702;9.410;2023-04-03T04:44:48;2.60;99.90
5870;DHT22;2961;47.702;9.410;2023-04-03T04:47:15;2.60;99.90
5870;DHT22;2961;47.702;9.410;2023-04-03T04:49:42;2.60;99.90
5870;DHT22;2961;47.702;9.410;2023-04-03T04:52:09;2.60;99.90
5870;DHT22;2961;47.702;9.410;2023-04-03T04:54:37;2.70;99.90
5870;DHT22;2961;47.702;9.410;2023-04-03T04:57:04;2.70;99.90
5870;DHT22;2961;47.702;9.410;2023-04-03T04:59:32;2.70;99.90
5870;DHT22;2961;47.702;9.410;2023-04-03T05:01:59;2.70;99.90
5870;DHT22;2961;47.702;9.410;2023-04-03T05:04:26;2.70;99.90
5870;DHT22;2961;47.702;9.410;2023-04-03T05:06:53;2.70;99.90
5870;DHT22;2961;47.702;9.410;2023-04-03T05:09:20;2.70;99.90
5870;DHT22;2961;47.702;9.410;2023-04-03T05:11:47;2.70;99.90
5870;DHT22;2961;47.702;9.410;2023-04-03T05:14:13;2.70;99.90
5870;DHT22;2961;47.702;9.410;2023-04-03T05:16:41;2.80;99.90
5870;DHT22;2961;47.702;9.410;2023-04-03T05:19:08;2.80;99.90
5870;DHT22;2961;47.702;9.410;2023-04-03T05:21:36;2.80;99.90
5870;DHT22;2961;47.702;9.410;2023-04-03T05:24:03;2.80;99.90
5870;DHT22;2961;47.702;9.410;2023-04-03T05:26:31;2.90;99.90
5870;DHT22;2961;47.702;9.410;2023-04-03T05:28:57;2.90;99.90
5870;DHT22;2961;47.702;9.410;2023-04-03T05:31:24;2.90;99.90
5870;DHT22;2961;47.702;9.410;2023-04-03T05:33:56;2.80;99.90
5870;DHT22;2961;47.702;9.410;2023-04-03T05:36:23;2.90;99.90
5870;DHT22;2961;47.702;9.410;2023-04-03T05:38:49;2.80;99.90
5870;DHT22;2961;47.702;9.410;2023-04-03T05:41:16;2.90;99.90
5870;DHT22;2961;47.702;9.410;2023-04-03T05:43:43;2.90;99.90
5870;DHT22;2961;47.702;9.410;2023-04-03T05:46:11;2.80;99.90
5870;DHT22;2961;47.702;9.410;2023-04-03T05:48:38;2.90;99.90
5870;DHT22;2961;47.702;9.410;2023-04-03T05:51:09;2.90;99.90
5870;DHT22;2961;47.702;9.410;2023-04-03T05:53:40;2.90;99.90
5870;DHT22;2961;47.702;9.410;2023-04-03T05:56:07;2.90;99.90
5870;DHT22;2961;47.702;9.410;2023-04-03T05:58:34;2.90;99.90
5870;DHT22;2961;47.702;9.410;2023-04-03T06:01:01;2.90;99.90
5870;DHT22;2961;47.702;9.410;2023-04-03T06:03:28;2.90;99.90
5870;DHT22;2961;47.702;9.410;2023-04-03T06:05:54;2.90;99.90
5870;DHT22;2961;47.702;9.410;2023-04-03T06:08:22;2.90;99.90
5870;DHT22;2961;47.702;9.410;2023-04-03T06:10:50;2.90;99.90
5870;DHT22;2961;47.702;9.410;2023-04-03T06:13:17;2.90;99.90
5870;DHT22;2961;47.702;9.410;2023-04-03T06:15:43;2.90;99.90
5870;DHT22;2961;47.702;9.410;2023-04-03T06:18:10;3.00;99.90
5870;DHT22;2961;47.702;9.410;2023-04-03T06:20:37;3.00;99.90
5870;DHT22;2961;47.702;9.410;2023-04-03T06:23:04;3.00;99.90
5870;DHT22;2961;47.702;9.410;2023-04-03T06:25:32;3.00;99.90
5870;DHT22;2961;47.702;9.410;2023-04-03T06:27:59;3.10;99.90
5870;DHT22;2961;47.702;9.410;2023-04-03T06:30:26;3.10;99.90
5870;DHT22;2961;47.702;9.410;2023-04-03T06:32:53;3.10;99.90
5870;DHT22;2961;47.702;9.410;2023-04-03T06:35:21;3.20;99.90
5870;DHT22;2961;47.702;9.410;2023-04-03T06:37:49;3.20;99.90
5870;DHT22;2961;47.702;9.410;2023-04-03T06:40:19;3.20;99.90
5870;DHT22;2961;47.702;9.410;2023-04-03T06:42:48;3.20;99.90
5870;DHT22;2961;47.702;9.410;2023-04-03T06:45:15;3.20;99.90
5870;DHT22;2961;47.702;9.410;2023-04-03T06:47:42;3.20;99.90
5870;DHT22;2961;47.702;9.410;2023-04-03T06:50:10;3.20;99.90
5870;DHT22;2961;47.702;9.410;2023-04-03T06:52:39;3.30;99.90
5870;DHT22;2961;47.702;9.410;2023-04-03T06:55:07;3.40;99.90
5870;DHT22;2961;47.702;9.410;2023-04-03T06:57:34;3.40;99.90
5870;DHT22;2961;47.702;9.410;2023-04-03T07:00:04;3.40;99.90
5870;DHT22;2961;47.702;9.410;2023-04-03T07:02:31;3.40;99.90
5870;DHT22;2961;47.702;9.410;2023-04-03T07:04:58;3.40;99.90
5870;DHT22;2961;47.702;9.410;2023-04-03T07:07:25;3.40;99.90
5870;DHT22;2961;47.702;9.410;2023-04-03T07:09:52;3.40;99.90
5870;DHT22;2961;47.702;9.410;2023-04-03T07:12:18;3.50;99.90
5870;DHT22;2961;47.702;9.410;2023-04-03T07:14:45;3.60;99.90
5870;DHT22;2961;47.702;9.410;2023-04-03T07:17:13;3.60;99.90
5870;DHT22;2961;47.702;9.410;2023-04-03T07:19:40;3.70;99.90
5870;DHT22;2961;47.702;9.410;2023-04-03T07:22:07;3.70;99.90
5870;DHT22;2961;47.702;9.410;2023-04-03T07:24:34;3.70;99.90
5870;DHT22;2961;47.702;9.410;2023-04-03T07:27:01;3.90;99.90
5870;DHT22;2961;47.702;9.410;2023-04-03T07:29:28;4.00;99.90
5870;DHT22;2961;47.702;9.410;2023-04-03T07:31:55;4.00;99.90
5870;DHT22;2961;47.702;9.410;2023-04-03T07:34:23;4.00;99.90
5870;DHT22;2961;47.702;9.410;2023-04-03T07:36:50;4.00;99.90
5870;DHT22;2961;47.702;9.410;2023-04-03T07:39:17;4.10;99.90
5870;DHT22;2961;47.702;9.410;2023-04-03T07:41:44;4.10;99.90
5870;DHT22;2961;47.702;9.410;2023-04-03T07:44:11;3.90;99.90
5870;DHT22;2961;47.702;9.410;2023-04-03T07:46:37;3.90;99.90
5870;DHT22;2961;47.702;9.410;2023-04-03T07:49:06;4.00;99.90
5870;DHT22;2961;47.702;9.410;2023-04-03T07:51:34;4.00;99.90
5870;DHT22;2961;47.702;9.410;2023-04-03T07:54:01;3.90;99.90
5870;DHT22;2961;47.702;9.410;2023-04-03T07:56:28;4.00;99.90
5870;DHT22;2961;47.702;9.410;2023-04-03T07:58:55;4.00;99.90
5870;DHT22;2961;47.702;9.410;2023-04-03T08:01:21;4.10;99.90
5870;DHT22;2961;47.702;9.410;2023-04-03T08:03:48;4.00;99.90
5870;DHT22;2961;47.702;9.410;2023-04-03T08:06:16;4.00;99.90
5870;DHT22;2961;47.702;9.410;2023-04-03T08:08:44;4.00;99.90
5870;DHT22;2961;47.702;9.410;2023-04-03T08:11:11;4.00;99.90
5870;DHT22;2961;47.702;9.410;2023-04-03T08:13:38;4.10;99.90
5870;DHT22;2961;47.702;9.410;2023-04-03T08:16:11;4.20;99.90
5870;DHT22;2961;47.702;9.410;2023-04-03T08:18:39;4.20;99.90
5870;DHT22;2961;47.702;9.410;2023-04-03T08:21:07;4.20;99.90
5870;DHT22;2961;47.702;9.410;2023-04-03T08:23:34;4.20;99.90
5870;DHT22;2961;47.702;9.410;2023-04-03T08:26:07;4.30;99.90
5870;DHT22;2961;47.702;9.410;2023-04-03T08:28:34;4.30;99.90
5870;DHT22;2961;47.702;9.410;2023-04-03T08:31:05;4.40;99.90
5870;DHT22;2961;47.702;9.410;2023-04-03T08:33:32;4.50;99.90
5870;DHT22;2961;47.702;9.410;2023-04-03T08:36:01;4.60;99.90
5870;DHT22;2961;47.702;9.410;2023-04-03T08:38:28;4.60;99.90
5870;DHT22;2961;47.702;9.410;2023-04-03T08:41:09;4.60;99.90
5870;DHT22;2961;47.702;9.410;2023-04-03T08:43:45;4.60;99.90
5870;DHT22;2961;47.702;9.410;2023-04-03T08:46:17;4.80;99.90
5870;DHT22;2961;47.702;9.410;2023-04-03T08:48:46;4.90;99.90
5870;DHT22;2961;47.702;9.410;2023-04-03T08:51:15;4.90;99.90
5870;DHT22;2961;47.702;9.410;2023-04-03T08:53:46;5.00;99.90
5870;DHT22;2961;47.702;9.410;2023-04-03T08:56:20;5.10;99.90
5870;DHT22;2961;47.702;9.410;2023-04-03T08:58:51;5.20;99.90
5870;DHT22;2961;47.702;9.410;2023-04-03T09:01:23;5.20;99.90
5870;DHT22;2961;47.702;9.410;2023-04-03T09:03:51;5.10;99.90
5870;DHT22;2961;47.702;9.410;2023-04-03T09:06:20;5.20;99.90
5870;DHT22;2961;47.702;9.410;2023-04-03T09:08:53;5.20;99.90
5870;DHT22;2961;47.702;9.410;2023-04-03T09:11:25;5.30;99.90
5870;DHT22;2961;47.702;9.410;2023-04-03T09:13:58;5.40;99.90
5870;DHT22;2961;47.702;9.410;2023-04-03T09:16:33;5.40;99.90
5870;DHT22;2961;47.702;9.410;2023-04-03T09:19:07;5.40;99.90
5870;DHT22;2961;47.702;9.410;2023-04-03T09:21:40;5.50;99.90
5870;DHT22;2961;47.702;9.410;2023-04-03T09:24:09;5.40;99.90
5870;DHT22;2961;47.702;9.410;2023-04-03T09:26:42;5.40;99.90
5870;DHT22;2961;47.702;9.410;2023-04-03T09:29:15;5.40;99.90
5870;DHT22;2961;47.702;9.410;2023-04-03T09:31:44;5.50;99.90
5870;DHT22;2961;47.702;9.410;2023-04-03T09:34:18;5.60;99.90
5870;DHT22;2961;47.702;9.410;2023-04-03T09:36:49;5.80;99.90
5870;DHT22;2961;47.702;9.410;2023-04-03T09:39:18;5.80;99.90
5870;DHT22;2961;47.702;9.410;2023-04-03T09:41:59;5.90;99.90
5870;DHT22;2961;47.702;9.410;2023-04-03T09:44:28;6.00;99.90
5870;DHT22;2961;47.702;9.410;2023-04-03T09:46:56;6.00;99.90
5870;DHT22;2961;47.702;9.410;2023-04-03T09:49:22;5.90;99.90
5870;DHT22;2961;47.702;9.410;2023-04-03T09:51:49;5.90;99.90
5870;DHT22;2961;47.702;9.410;2023-04-03T09:54:33;6.00;99.90
5870;DHT22;2961;47.702;9.410;2023-04-03T09:57:07;6.10;99.90
5870;DHT22;2961;47.702;9.410;2023-04-03T09:59:34;6.10;99.90
5870;DHT22;2961;47.702;9.410;2023-04-03T10:02:03;6.20;99.90
5870;DHT22;2961;47.702;9.410;2023-04-03T10:04:40;6.20;99.90
5870;DHT22;2961;47.702;9.410;2023-04-03T10:07:31;6.10;99.90
5870;DHT22;2961;47.702;9.410;2023-04-03T10:09:58;6.00;99.90
5870;DHT22;2961;47.702;9.410;2023-04-03T10:12:28;6.10;99.90
5870;DHT22;2961;47.702;9.410;2023-04-03T10:14:58;6.10;99.90
5870;DHT22;2961;47.702;9.410;2023-04-03T10:17:36;6.20;99.90
5870;DHT22;2961;47.702;9.410;2023-04-03T10:20:09;6.20;99.90
5870;DHT22;2961;47.702;9.410;2023-04-03T10:22:49;6.00;99.90
5870;DHT22;2961;47.702;9.410;2023-04-03T10:25:24;5.90;99.90
5870;DHT22;2961;47.702;9.410;2023-04-03T10:27:57;5.80;99.90
5870;DHT22;2961;47.702;9.410;2023-04-03T10:30:34;5.80;99.90
5870;DHT22;2961;47.702;9.410;2023-04-03T10:33:20;5.80;99.90
5870;DHT22;2961;47.702;9.410;2023-04-03T10:35:56;5.90;99.90
5870;DHT22;2961;47.702;9.410;2023-04-03T10:38:32;6.10;99.90
5870;DHT22;2961;47.702;9.410;2023-04-03T10:41:02;6.20;99.90
5870;DHT22;2961;47.702;9.410;2023-04-03T10:43:38;6.20;99.90
5870;DHT22;2961;47.702;9.410;2023-04-03T10:46:12;6.30;99.90
5870;DHT22;2961;47.702;9.410;2023-04-03T10:48:49;6.60;99.90
5870;DHT22;2961;47.702;9.410;2023-04-03T10:51:24;6.80;99.90
5870;DHT22;2961;47.702;9.410;2023-04-03T10:53:56;6.80;99.90
5870;DHT22;2961;47.702;9.410;2023-04-03T10:56:31;6.80;99.90
5870;DHT22;2961;47.702;9.410;2023-04-03T10:59:07;6.80;99.90
5870;DHT22;2961;47.702;9.410;2023-04-03T11:01:40;6.70;99.90
5870;DHT22;2961;47.702;9.410;2023-04-03T11:04:10;6.90;99.90
5870;DHT22;2961;47.702;9.410;2023-04-03T11:06:41;6.90;99.90
5870;DHT22;2961;47.702;9.410;2023-04-03T11:09:19;7.00;99.90
5870;DHT22;2961;47.702;9.410;2023-04-03T11:11:49;7.00;99.90
5870;DHT22;2961;47.702;9.410;2023-04-03T11:14:25;7.00;99.90
5870;DHT22;2961;47.702;9.410;2023-04-03T11:16:59;7.00;99.90
5870;DHT22;2961;47.702;9.410;2023-04-03T11:19:35;7.10;99.90
5870;DHT22;2961;47.702;9.410;2023-04-03T11:22:09;7.00;99.90
5870;DHT22;2961;47.702;9.410;2023-04-03T11:24:40;7.00;99.90
5870;DHT22;2961;47.702;9.410;2023-04-03T11:27:13;7.10;99.90
5870;DHT22;2961;47.702;9.410;2023-04-03T11:29:45;7.40;99.90
5870;DHT22;2961;47.702;9.410;2023-04-03T11:32:28;7.60;99.90
5870;DHT22;2961;47.702;9.410;2023-04-03T11:35:00;7.90;99.90
5870;DHT22;2961;47.702;9.410;2023-04-03T11:37:32;8.00;99.90
5870;DHT22;2961;47.702;9.410;2023-04-03T11:40:03;8.00;99.90
5870;DHT22;2961;47.702;9.410;2023-04-03T11:42:34;7.80;99.90
5870;DHT22;2961;47.702;9.410;2023-04-03T11:45:38;7.60;99.90
5870;DHT22;2961;47.702;9.410;2023-04-03T11:48:43;7.40;99.90
5870;DHT22;2961;47.702;9.410;2023-04-03T11:51:39;7.40;99.90
5870;DHT22;2961;47.702;9.410;2023-04-03T11:57:45;7.40;99.90
5870;DHT22;2961;47.702;9.410;2023-04-03T12:00:47;7.50;99.90
5870;DHT22;2961;47.702;9.410;2023-04-03T12:12:30;7.40;99.90
5870;DHT22;2961;47.702;9.410;2023-04-03T12:15:16;7.60;99.90
5870;DHT22;2961;47.702;9.410;2023-04-03T12:20:59;7.50;99.90
5870;DHT22;2961;47.702;9.410;2023-04-03T12:23:29;7.30;99.90
5870;DHT22;2961;47.702;9.410;2023-04-03T12:26:06;7.30;99.90
5870;DHT22;2961;47.702;9.410;2023-04-03T12:28:45;7.30;99.90
5870;DHT22;2961;47.702;9.410;2023-04-03T12:31:14;7.50;99.90
5870;DHT22;2961;47.702;9.410;2023-04-03T12:34:13;7.60;99.90
5870;DHT22;2961;47.702;9.410;2023-04-03T12:36:48;7.90;99.90
5870;DHT22;2961;47.702;9.410;2023-04-03T12:39:37;7.70;99.90
5870;DHT22;2961;47.702;9.410;2023-04-03T12:42:22;7.70;99.90
5870;DHT22;2961;47.702;9.410;2023-04-03T12:44:56;7.70;99.90
5870;DHT22;2961;47.702;9.410;2023-04-03T12:47:29;7.60;99.90
5870;DHT22;2961;47.702;9.410;2023-04-03T12:49:59;7.50;99.90
5870;DHT22;2961;47.702;9.410;2023-04-03T12:52:35;7.40;99.90
5870;DHT22;2961;47.702;9.410;2023-04-03T12:55:08;7.30;99.90
5870;DHT22;2961;47.702;9.410;2023-04-03T12:57:43;7.20;99.90
5870;DHT22;2961;47.702;9.410;2023-04-03T13:00:34;7.10;99.90
5870;DHT22;2961;47.702;9.410;2023-04-03T13:03:06;7.10;99.90
5870;DHT22;2961;47.702;9.410;2023-04-03T13:05:34;7.00;99.90
5870;DHT22;2961;47.702;9.410;2023-04-03T13:08:04;7.20;99.90
5870;DHT22;2961;47.702;9.410;2023-04-03T13:10:32;7.40;99.90
5870;DHT22;2961;47.702;9.410;2023-04-03T13:13:10;7.60;99.90
5870;DHT22;2961;47.702;9.410;2023-04-03T13:15:42;7.50;99.50
5870;DHT22;2961;47.702;9.410;2023-04-03T13:18:26;7.50;99.90
5870;DHT22;2961;47.702;9.410;2023-04-03T13:21:00;7.80;99.90
5870;DHT22;2961;47.702;9.410;2023-04-03T13:23:28;7.70;99.90
5870;DHT22;2961;47.702;9.410;2023-04-03T13:25:55;7.80;99.90
5870;DHT22;2961;47.702;9.410;2023-04-03T13:28:27;7.90;99.80
5870;DHT22;2961;47.702;9.410;2023-04-03T13:31:08;7.70;99.90
5870;DHT22;2961;47.702;9.410;2023-04-03T13:33:37;7.70;99.30
5870;DHT22;2961;47.702;9.410;2023-04-03T13:36:08;7.60;99.60
5870;DHT22;2961;47.702;9.410;2023-04-03T13:38:37;7.60;99.90
5870;DHT22;2961;47.702;9.410;2023-04-03T13:41:22;7.50;99.90
5870;DHT22;2961;47.702;9.410;2023-04-03T13:43:49;7.70;99.90
5870;DHT22;2961;47.702;9.410;2023-04-03T13:46:24;7.50;99.90
5870;DHT22;2961;47.702;9.410;2023-04-03T13:48:53;7.50;99.90
5870;DHT22;2961;47.702;9.410;2023-04-03T13:51:23;7.40;99.90
5870;DHT22;2961;47.702;9.410;2023-04-03T13:53:52;7.40;99.90
5870;DHT22;2961;47.702;9.410;2023-04-03T13:56:25;7.50;99.90
5870;DHT22;2961;47.702;9.410;2023-04-03T13:58:59;7.50;99.90
5870;DHT22;2961;47.702;9.410;2023-04-03T14:01:34;7.60;99.90
5870;DHT22;2961;47.702;9.410;2023-04-03T14:04:11;7.40;99.90
5870;DHT22;2961;47.702;9.410;2023-04-03T14:06:40;7.50;99.90
5870;DHT22;2961;47.702;9.410;2023-04-03T14:09:07;7.50;99.90
5870;DHT22;2961;47.702;9.410;2023-04-03T14:11:34;7.50;99.90
5870;DHT22;2961;47.702;9.410;2023-04-03T14:14:06;7.60;99.90
5870;DHT22;2961;47.702;9.410;2023-04-03T14:16:39;7.60;99.90
5870;DHT22;2961;47.702;9.410;2023-04-03T14:19:07;7.80;99.90
5870;DHT22;2961;47.702;9.410;2023-04-03T14:21:34;7.80;99.90
5870;DHT22;2961;47.702;9.410;2023-04-03T14:24:02;7.60;99.90
5870;DHT22;2961;47.702;9.410;2023-04-03T14:26:29;7.50;99.70
5870;DHT22;2961;47.702;9.410;2023-04-03T14:28:56;7.30;99.90
5870;DHT22;2961;47.702;9.410;2023-04-03T14:31:24;7.20;99.90
5870;DHT22;2961;47.702;9.410;2023-04-03T14:33:51;7.00;99.90
5870;DHT22;2961;47.702;9.410;2023-04-03T14:36:20;7.10;99.90
5870;DHT22;2961;47.702;9.410;2023-04-03T14:38:48;7.20;99.90
5870;DHT22;2961;47.702;9.410;2023-04-03T14:41:19;7.40;99.90
5870;DHT22;2961;47.702;9.410;2023-04-03T14:43:46;7.40;99.60
5870;DHT22;2961;47.702;9.410;2023-04-03T14:46:16;7.30;99.50
5870;DHT22;2961;47.702;9.410;2023-04-03T14:48:43;7.30;99.90
5870;DHT22;2961;47.702;9.410;2023-04-03T14:51:11;7.20;99.80
5870;DHT22;2961;47.702;9.410;2023-04-03T14:53:38;7.00;99.60
5870;DHT22;2961;47.702;9.410;2023-04-03T14:56:11;7.00;99.90
5870;DHT22;2961;47.702;9.410;2023-04-03T14:58:40;7.10;99.90
5870;DHT22;2961;47.702;9.410;2023-04-03T15:01:08;7.00;99.70
5870;DHT22;2961;47.702;9.410;2023-04-03T15:03:35;7.00;99.90
5870;DHT22;2961;47.702;9.410;2023-04-03T15:06:02;7.10;99.50
5870;DHT22;2961;47.702;9.410;2023-04-03T15:08:38;7.10;98.10
5870;DHT22;2961;47.702;9.410;2023-04-03T15:11:06;6.90;98.30
5870;DHT22;2961;47.702;9.410;2023-04-03T15:13:33;6.80;97.90
5870;DHT22;2961;47.702;9.410;2023-04-03T15:16:01;6.60;99.20
5870;DHT22;2961;47.702;9.410;2023-04-03T15:18:33;6.60;99.10
5870;DHT22;2961;47.702;9.410;2023-04-03T15:21:02;6.70;99.90
5870;DHT22;2961;47.702;9.410;2023-04-03T15:23:29;6.80;99.50
5870;DHT22;2961;47.702;9.410;2023-04-03T15:25:56;6.70;99.70
5870;DHT22;2961;47.702;9.410;2023-04-03T15:28:27;6.80;99.90
5870;DHT22;2961;47.702;9.410;2023-04-03T15:30:55;6.70;99.90
5870;DHT22;2961;47.702;9.410;2023-04-03T15:33:24;6.80;99.90
5870;DHT22;2961;47.702;9.410;2023-04-03T15:35:51;6.80;99.90
5870;DHT22;2961;47.702;9.410;2023-04-03T15:38:18;6.80;99.90
5870;DHT22;2961;47.702;9.410;2023-04-03T15:40:45;6.70;99.90
5870;DHT22;2961;47.702;9.410;2023-04-03T15:43:13;6.80;99.90
5870;DHT22;2961;47.702;9.410;2023-04-03T15:45:40;6.80;99.90
5870;DHT22;2961;47.702;9.410;2023-04-03T15:48:08;6.70;99.90
5870;DHT22;2961;47.702;9.410;2023-04-03T15:50:37;6.60;99.90
5870;DHT22;2961;47.702;9.410;2023-04-03T15:53:04;6.50;99.90
5870;DHT22;2961;47.702;9.410;2023-04-03T15:55:33;6.40;99.90
5870;DHT22;2961;47.702;9.410;2023-04-03T15:58:01;6.10;99.90
5870;DHT22;2961;47.702;9.410;2023-04-03T16:00:28;6.00;99.90
5870;DHT22;2961;47.702;9.410;2023-04-03T16:02:57;6.00;99.90
5870;DHT22;2961;47.702;9.410;2023-04-03T16:05:25;6.00;99.90
5870;DHT22;2961;47.702;9.410;2023-04-03T16:07:53;6.10;99.90
5870;DHT22;2961;47.702;9.410;2023-04-03T16:10:21;6.00;99.90
5870;DHT22;2961;47.702;9.410;2023-04-03T16:12:48;6.00;99.90
5870;DHT22;2961;47.702;9.410;2023-04-03T16:15:14;6.00;99.90
5870;DHT22;2961;47.702;9.410;2023-04-03T16:17:42;5.90;99.90
5870;DHT22;2961;47.702;9.410;2023-04-03T16:20:10;6.00;99.90
5870;DHT22;2961;47.702;9.410;2023-04-03T16:22:38;5.90;99.90
5870;DHT22;2961;47.702;9.410;2023-04-03T16:25:08;5.90;99.90
5870;DHT22;2961;47.702;9.410;2023-04-03T16:27:35;5.90;99.90
5870;DHT22;2961;47.702;9.410;2023-04-03T16:30:04;5.90;99.90
5870;DHT22;2961;47.702;9.410;2023-04-03T16:32:31;5.80;99.90
5870;DHT22;2961;47.702;9.410;2023-04-03T16:34:58;5.70;99.90
5870;DHT22;2961;47.702;9.410;2023-04-03T16:37:26;5.70;99.90
5870;DHT22;2961;47.702;9.410;2023-04-03T16:39:53;5.70;99.90
5870;DHT22;2961;47.702;9.410;2023-04-03T16:42:21;5.70;99.90
5870;DHT22;2961;47.702;9.410;2023-04-03T16:44:47;5.70;99.90
5870;DHT22;2961;47.702;9.410;2023-04-03T16:47:14;5.60;99.90
5870;DHT22;2961;47.702;9.410;2023-04-03T16:49:44;5.60;99.90
5870;DHT22;2961;47.702;9.410;2023-04-03T16:52:12;5.50;99.90